Flight Track Log - Related Links

Times and Time Zones

All times are in EDT time to prevent confusion due to time zone crossing. See the SKW6335 flight status page for this flight to view local times or setup timezone preferences in your user account.

Time Position Orientation Groundspeed Altitude Reporting Facility
EDT Latitude Longitude Course Direction KTS MPH feet Rate Location/Type
Sat 06:07:22 PM 33.9167 -118.4667 140° Southeast 190 219 2,500  Level Southern California TRACON
Sat 06:08:23 PM 33.8667 -118.4833 195° South 190 219 3,900 1,339 Climbing Southern California TRACON
Sat 06:09:23 PM 33.8000 -118.4833 180° South 207 238 5,200 1,350 Climbing Southern California TRACON
Sat 06:10:00 PM 33.6897 -118.1495 139° Southeast  Level Estimated
Sat 06:10:23 PM 33.7500 -118.4500 151° Southeast 212 244 6,600  Level Southern California TRACON
Sat 06:11:00 PM 33.6266 -118.0847 139° Southeast  Level FlightAware Approximate
Sat 06:11:18 PM 33.7167 -118.4161 140° Southeast 209 241 7,800  Level Los Angeles Center
Sat 06:12:00 PM 33.5804 -118.0374 140° Southeast  Level FlightAware Approximate
Sat 06:12:20 PM 33.6769 -118.3681 135° Southeast 208 239 9,000  Level Los Angeles Center
Sat 06:13:22 PM 33.6214 -118.3025 135° Southeast 225 259 9,000  Level Los Angeles Center
Sat 06:14:24 PM 33.5708 -118.2450 137° Southeast 242 278 9,000  Level Los Angeles Center
Sat 06:15:26 PM 33.5261 -118.1794 129° Southeast 251 289 9,000  Level Los Angeles Center
Sat 06:16:27 PM 33.4911 -118.1067 120° Southeast 253 291 9,000  Level Los Angeles Center
Sat 06:17:29 PM 33.4486 -118.0208 121° Southeast 253 291 9,000  Level Los Angeles Center
Sat 06:18:31 PM 33.4119 -117.9497 122° Southeast 253 291 9,000  Level Los Angeles Center
Sat 06:19:33 PM 33.3750 -117.8792 122° Southeast 252 290 9,000  Level Los Angeles Center
Sat 06:20:35 PM 33.3375 -117.8069 122° Southeast 256 295 9,000  Level Los Angeles Center
Sat 06:21:37 PM 33.2997 -117.7347 122° Southeast 255 293 9,000  Level Los Angeles Center
Sat 06:22:38 PM 33.2628 -117.6628 122° Southeast 257 296 9,000  Level Los Angeles Center
Sat 06:23:31 PM 33.2167 -117.5833 125° Southeast 257 296 9,000  Level Southern California TRACON
Sat 06:24:31 PM 33.1833 -117.5167 121° Southeast 260 299 9,000  Level Southern California TRACON
Sat 06:25:31 PM 33.1500 -117.4500 121° Southeast 260 299 9,000 -500 Level Southern California TRACON
Sat 06:26:31 PM 33.0833 -117.4000 148° Southeast 272 313 8,000 -880 Descending Southern California TRACON
Sat 06:26:46 PM 33.0731 -117.3922 148° Southeast 272 313 7,900 -900 Descending Los Angeles Center
Sat 06:27:31 PM 33.0167 -117.3667 159° South 277 319 7,100 -514 Descending Southern California TRACON
Sat 06:28:31 PM 32.9500 -117.3167 148° Southeast 257 296 7,000 -100 Descending Southern California TRACON
Sat 06:29:31 PM 32.9000 -117.2667 140° Southeast 257 296 6,900 -700 Descending Southern California TRACON
Sat 06:30:31 PM 32.8500 -117.2000 132° Southeast 288 331 5,600 -1,085 Descending Southern California TRACON
Sat 06:31:05 PM 32.8275 -117.1725 134° Southeast 280 322 5,200 -375 Descending Los Angeles Center
Sat 06:32:07 PM 32.7711 -117.0853 128° Southeast 273 314 5,000 -150 Descending Los Angeles Center
Sat 06:32:25 PM 32.7667 -117.0667 106° East 259 298 5,000  Level Southern California TRACON
Sat 06:33:25 PM 32.7500 -116.9833 103° East 248 285 5,000 -429 Level Southern California TRACON
Sat 06:34:31 PM 32.7000 -116.9500 151° Southeast 245 282 4,100 -942 Descending Southern California TRACON
Sat 06:35:26 PM 32.6833 -117.0000 248° West 216 249 3,100 -835 Descending Southern California TRACON
Sat 06:36:26 PM 32.7000 -117.0667 287° West 180 207 2,500 -800 Descending Southern California TRACON
Sat 06:37:26 PM 32.7167 -117.1000 301° West 142 163 1,500 -857 Descending Southern California TRACON
Sat 06:38:18 PM 32.7222 -117.1450 278° West 142 163 900 -637 Descending Los Angeles Center
Sat 06:39:19 PM 32.7319 -117.1833 287° West 141 162 300 -590 Descending Los Angeles Center

Login

Don't have an account? Register now (free) for customized features, flight alerts, and more!